createdAt,value
2018-07-21T00:00:56.131Z,17.90
2018-07-21T00:03:23.589Z,17.80
2018-07-21T00:05:51.190Z,17.80
2018-07-21T00:08:18.636Z,17.80
2018-07-21T00:10:46.083Z,17.80
2018-07-21T00:13:13.448Z,17.80
2018-07-21T00:15:40.823Z,17.70
2018-07-21T00:18:08.231Z,17.60
2018-07-21T00:20:35.641Z,17.60
2018-07-21T00:23:03.012Z,17.50
2018-07-21T00:25:30.476Z,17.50
2018-07-21T00:27:57.855Z,17.50
2018-07-21T00:30:25.235Z,17.50
2018-07-21T00:32:52.642Z,17.50
2018-07-21T00:35:20.016Z,17.50
2018-07-21T00:37:47.368Z,17.50
2018-07-21T00:40:14.711Z,17.50
2018-07-21T00:42:42.235Z,17.50
2018-07-21T00:47:36.945Z,17.50
2018-07-21T00:50:04.958Z,17.50
2018-07-21T00:55:02.696Z,17.40
2018-07-21T00:57:30.262Z,17.40
2018-07-21T00:59:57.737Z,17.40
2018-07-21T01:02:25.220Z,17.40
2018-07-21T01:04:52.658Z,17.30
2018-07-21T01:07:20.038Z,17.30
2018-07-21T01:09:47.591Z,17.30
2018-07-21T01:12:16.146Z,17.30
2018-07-21T01:14:43.576Z,17.30
2018-07-21T01:17:11.021Z,17.30
2018-07-21T01:19:38.499Z,17.20
2018-07-21T01:22:05.960Z,17.30
2018-07-21T01:27:00.558Z,17.30
2018-07-21T01:29:28.210Z,17.30
2018-07-21T01:31:55.667Z,17.30
2018-07-21T01:34:23.112Z,17.20
2018-07-21T01:39:17.864Z,17.30
2018-07-21T01:41:45.192Z,17.40
2018-07-21T01:44:12.539Z,17.30
2018-07-21T01:46:39.962Z,17.20
2018-07-21T01:49:07.364Z,17.10
2018-07-21T01:51:34.755Z,17.20
2018-07-21T01:54:02.152Z,17.10
2018-07-21T02:01:24.120Z,17.00
2018-07-21T02:03:51.493Z,17.10
2018-07-21T02:06:18.930Z,17.00
2018-07-21T02:08:46.330Z,17.00
2018-07-21T02:11:13.763Z,16.90
2018-07-21T02:13:41.994Z,16.90
2018-07-21T02:16:09.454Z,16.80
2018-07-21T02:18:36.848Z,16.80
2018-07-21T02:21:04.514Z,16.70
2018-07-21T02:23:31.902Z,16.70
2018-07-21T02:28:26.523Z,16.60
2018-07-21T02:30:53.948Z,16.70
2018-07-21T02:33:21.390Z,16.60
2018-07-21T02:35:48.776Z,16.60
2018-07-21T02:38:16.255Z,16.60
2018-07-21T02:40:43.629Z,16.60
2018-07-21T02:43:11.124Z,16.70
2018-07-21T02:45:38.631Z,16.70
2018-07-21T02:50:33.136Z,16.60
2018-07-21T02:53:00.484Z,16.50
2018-07-21T02:55:28.386Z,16.50
2018-07-21T02:57:55.742Z,16.50
2018-07-21T03:00:23.118Z,16.50
2018-07-21T03:05:18.507Z,16.50
2018-07-21T03:07:45.927Z,16.50
2018-07-21T03:10:13.399Z,16.50
2018-07-21T03:12:40.860Z,16.50
2018-07-21T03:15:08.350Z,16.50
2018-07-21T03:17:35.807Z,16.60
2018-07-21T03:20:03.393Z,16.60
2018-07-21T03:22:30.745Z,16.60
2018-07-21T03:24:58.223Z,16.60
2018-07-21T03:27:25.555Z,16.60
2018-07-21T03:29:52.919Z,16.70
2018-07-21T03:32:20.267Z,16.80
2018-07-21T03:39:42.331Z,16.90
2018-07-21T03:42:09.681Z,16.90
2018-07-21T03:44:37.063Z,16.90
2018-07-21T03:47:04.394Z,16.90
2018-07-21T03:49:31.759Z,16.90
2018-07-21T03:51:59.118Z,16.90
2018-07-21T03:54:26.467Z,16.90
2018-07-21T03:59:21.427Z,16.90
2018-07-21T04:01:48.767Z,17.00
2018-07-21T04:06:43.286Z,17.00
2018-07-21T04:11:39.039Z,17.10
2018-07-21T04:14:06.370Z,17.20
2018-07-21T04:16:34.165Z,17.30
2018-07-21T04:19:01.530Z,17.30
2018-07-21T04:21:28.910Z,17.40
2018-07-21T04:23:56.248Z,17.40
2018-07-21T04:26:23.637Z,17.40
2018-07-21T04:28:51.078Z,17.50
2018-07-21T04:31:18.616Z,17.50
2018-07-21T04:38:40.334Z,17.70
2018-07-21T04:41:07.754Z,17.70
2018-07-21T04:43:35.195Z,17.80
2018-07-21T04:46:02.595Z,17.90
2018-07-21T04:48:30.016Z,18.00
2018-07-21T04:50:57.374Z,18.10
2018-07-21T04:53:24.771Z,18.20
2018-07-21T04:55:52.115Z,18.40
2018-07-21T04:58:19.490Z,18.50
2018-07-21T05:00:46.962Z,18.50
2018-07-21T05:03:14.223Z,18.60
2018-07-21T05:05:41.574Z,18.70
2018-07-21T05:08:09.205Z,18.80
2018-07-21T05:10:36.579Z,18.90
2018-07-21T05:13:04.291Z,19.00
2018-07-21T05:18:00.575Z,19.20
2018-07-21T05:22:55.151Z,19.30
2018-07-21T05:25:22.515Z,19.50
2018-07-21T05:27:50.000Z,19.50
2018-07-21T05:30:17.347Z,19.60
2018-07-21T05:32:44.948Z,19.80
2018-07-21T05:35:12.670Z,19.90
2018-07-21T05:37:40.215Z,20.00
2018-07-21T05:45:02.111Z,20.10
2018-07-21T05:47:29.466Z,20.20
2018-07-21T05:49:56.800Z,20.30
2018-07-21T05:52:24.182Z,20.40
2018-07-21T05:54:51.558Z,20.50
2018-07-21T05:57:18.915Z,20.60
2018-07-21T05:59:46.279Z,20.70
2018-07-21T06:02:13.608Z,20.70
2018-07-21T06:04:41.052Z,20.90
2018-07-21T06:07:08.428Z,21.00
2018-07-21T06:09:35.771Z,21.10
2018-07-21T06:12:03.283Z,21.20
2018-07-21T06:14:30.654Z,21.20
2018-07-21T06:16:58.120Z,21.30
2018-07-21T06:21:52.658Z,21.50
2018-07-21T06:24:20.013Z,21.50
2018-07-21T06:26:47.359Z,21.70
2018-07-21T06:29:14.695Z,21.80
2018-07-21T06:31:42.047Z,21.80
2018-07-21T06:34:09.419Z,21.70
2018-07-21T06:36:36.858Z,21.80
2018-07-21T06:41:31.499Z,22.00
2018-07-21T06:43:59.450Z,22.10
2018-07-21T06:46:26.783Z,22.10
2018-07-21T06:48:54.120Z,22.10
2018-07-21T06:51:21.508Z,22.20
2018-07-21T06:53:48.857Z,22.20
2018-07-21T06:56:16.189Z,22.30
2018-07-21T07:01:10.711Z,22.40
2018-07-21T07:03:38.145Z,22.50
2018-07-21T07:06:05.476Z,22.50
2018-07-21T07:11:00.239Z,22.70
2018-07-21T07:13:27.642Z,22.70
2018-07-21T07:15:55.369Z,22.90
2018-07-21T07:18:23.542Z,23.00
2018-07-21T07:20:50.979Z,23.00
2018-07-21T07:23:18.353Z,23.20
2018-07-21T07:25:45.787Z,23.20
2018-07-21T07:28:13.155Z,23.30
2018-07-21T07:30:40.523Z,23.40
2018-07-21T07:33:08.061Z,23.50
2018-07-21T07:35:35.378Z,23.70
2018-07-21T07:38:02.851Z,23.80
2018-07-21T07:40:30.215Z,23.70
2018-07-21T07:42:57.790Z,23.60
2018-07-21T07:45:25.224Z,23.70
2018-07-21T07:47:54.908Z,23.60
2018-07-21T07:50:22.435Z,23.60
2018-07-21T07:52:49.843Z,23.60
2018-07-21T07:55:17.190Z,23.80
2018-07-21T07:57:44.566Z,23.80
2018-07-21T08:00:11.927Z,23.90
2018-07-21T08:02:39.330Z,24.00
2018-07-21T08:07:34.120Z,24.10
2018-07-21T08:14:56.160Z,24.40
2018-07-21T08:17:24.048Z,24.50
2018-07-21T08:27:13.563Z,24.40
2018-07-21T08:29:41.075Z,24.50
2018-07-21T08:32:08.725Z,24.60
2018-07-21T08:34:36.151Z,24.60
2018-07-21T08:37:03.457Z,24.60
2018-07-21T08:39:30.834Z,24.60
2018-07-21T08:41:58.278Z,24.60
2018-07-21T08:44:25.781Z,24.60
2018-07-21T08:46:53.187Z,24.70
2018-07-21T08:51:47.795Z,24.80
2018-07-21T08:54:15.406Z,24.90
2018-07-21T08:56:42.795Z,25.00
2018-07-21T08:59:10.239Z,25.20
2018-07-21T09:04:05.774Z,25.20
2018-07-21T09:06:33.123Z,25.40
2018-07-21T09:09:00.490Z,25.40
2018-07-21T09:11:27.822Z,25.40
2018-07-21T09:13:55.220Z,25.50
2018-07-21T09:16:22.558Z,25.50
2018-07-21T09:18:49.934Z,25.40
2018-07-21T09:21:17.270Z,25.50
2018-07-21T09:23:44.650Z,25.60
2018-07-21T09:26:11.978Z,25.70
2018-07-21T09:31:06.650Z,26.00
2018-07-21T09:33:34.008Z,26.10
2018-07-21T09:36:01.467Z,26.10
2018-07-21T09:48:18.040Z,26.30
2018-07-21T09:50:45.575Z,26.40
2018-07-21T09:53:13.002Z,26.60
2018-07-21T09:55:40.427Z,26.80
2018-07-21T10:00:40.739Z,26.90
2018-07-21T10:03:09.129Z,27.10
2018-07-21T10:05:36.673Z,27.20
2018-07-21T10:08:04.097Z,27.20
2018-07-21T10:12:59.159Z,27.40
2018-07-21T10:17:53.847Z,27.70
2018-07-21T10:20:21.214Z,27.60
2018-07-21T10:22:50.057Z,27.80
2018-07-21T10:25:23.152Z,27.80
2018-07-21T10:30:24.687Z,27.80
2018-07-21T10:32:53.038Z,27.80
2018-07-21T10:35:20.599Z,27.50
2018-07-21T10:37:48.112Z,27.50
2018-07-21T10:40:15.649Z,27.30
2018-07-21T10:42:43.167Z,27.30
2018-07-21T10:45:10.522Z,27.50
2018-07-21T10:47:37.887Z,27.70
2018-07-21T10:50:05.340Z,27.70
2018-07-21T10:52:32.769Z,27.70
2018-07-21T10:55:00.239Z,27.60
2018-07-21T10:57:27.906Z,27.50
2018-07-21T10:59:55.345Z,27.40
2018-07-21T11:02:23.048Z,27.20
2018-07-21T11:04:50.472Z,27.30
2018-07-21T11:09:45.132Z,27.50
2018-07-21T11:12:12.543Z,27.60
2018-07-21T11:14:40.075Z,27.60
2018-07-21T11:17:08.066Z,27.70
2018-07-21T11:19:35.531Z,27.90
2018-07-21T11:22:03.904Z,27.80
2018-07-21T11:24:31.660Z,27.70
2018-07-21T11:26:59.187Z,27.70
2018-07-21T11:29:27.093Z,27.70
2018-07-21T11:34:22.024Z,28.30
2018-07-21T11:36:49.650Z,28.70
2018-07-21T11:41:44.528Z,29.40
2018-07-21T11:44:13.069Z,29.50
2018-07-21T11:49:07.884Z,29.50
2018-07-21T11:51:35.387Z,29.60
2018-07-21T11:54:02.928Z,29.70
2018-07-21T11:56:30.451Z,29.80
2018-07-21T11:58:57.879Z,29.70
2018-07-21T12:01:25.374Z,29.70
2018-07-21T12:08:47.361Z,29.10
2018-07-21T12:11:14.870Z,29.10
2018-07-21T12:13:43.033Z,28.80
2018-07-21T12:16:10.383Z,28.00
2018-07-21T12:18:38.455Z,27.80
2018-07-21T12:21:05.956Z,27.90
2018-07-21T12:23:33.457Z,27.90
2018-07-21T12:26:01.198Z,28.10
2018-07-21T12:30:55.860Z,28.30
2018-07-21T12:33:23.432Z,28.50
2018-07-21T12:35:50.936Z,28.50
2018-07-21T12:38:18.382Z,28.70
2018-07-21T12:40:45.751Z,28.80
2018-07-21T12:43:13.381Z,28.90
2018-07-21T12:45:40.876Z,28.80
2018-07-21T12:48:09.151Z,28.60
2018-07-21T12:53:03.840Z,28.60
2018-07-21T12:55:31.226Z,28.80
2018-07-21T12:57:58.598Z,29.00
2018-07-21T13:00:25.969Z,29.10
2018-07-21T13:02:53.375Z,29.20
2018-07-21T13:05:20.810Z,29.20
2018-07-21T13:07:48.257Z,29.10
2018-07-21T13:10:15.883Z,29.10
2018-07-21T13:12:43.610Z,29.10
2018-07-21T13:15:10.963Z,29.40
2018-07-21T13:17:38.412Z,29.40
2018-07-21T13:20:05.943Z,29.40
2018-07-21T13:22:33.406Z,29.60
2018-07-21T13:25:02.817Z,29.80
2018-07-21T13:27:30.339Z,29.90
2018-07-21T13:30:05.051Z,29.70
2018-07-21T13:32:34.823Z,29.20
2018-07-21T13:37:29.691Z,28.80
2018-07-21T13:39:57.151Z,28.80
2018-07-21T13:42:24.863Z,28.90
2018-07-21T13:47:20.129Z,29.30
2018-07-21T13:49:47.524Z,29.50
2018-07-21T13:52:15.044Z,29.60
2018-07-21T13:57:12.445Z,29.80
2018-07-21T13:59:40.418Z,30.00
2018-07-21T14:09:30.011Z,30.20
2018-07-21T14:14:25.196Z,30.30
2018-07-21T14:16:52.784Z,30.50
2018-07-21T14:19:20.473Z,30.80
2018-07-21T14:21:47.940Z,30.90
2018-07-21T14:24:15.430Z,30.90
2018-07-21T14:26:43.661Z,30.50
2018-07-21T14:29:11.313Z,30.50
2018-07-21T14:31:38.742Z,30.40
2018-07-21T14:34:07.295Z,30.20
2018-07-21T14:36:35.153Z,29.90
2018-07-21T14:39:03.244Z,30.00
2018-07-21T14:41:31.204Z,30.00
2018-07-21T14:43:59.678Z,29.90
2018-07-21T14:46:27.047Z,30.10
2018-07-21T14:48:54.717Z,30.30
2018-07-21T14:51:22.065Z,30.50
2018-07-21T14:53:50.139Z,30.50
2018-07-21T14:56:17.585Z,30.40
2018-07-21T15:01:12.283Z,30.50
2018-07-21T15:03:39.711Z,30.60
2018-07-21T15:06:10.952Z,30.60
2018-07-21T15:08:39.808Z,30.70
2018-07-21T15:11:07.308Z,30.70
2018-07-21T15:13:35.174Z,30.60
2018-07-21T15:16:02.848Z,30.90
2018-07-21T15:18:30.829Z,31.00
